This is the latest recevied weather packets stored in our database for station/object KB9GXK. If no packets are shown the sender has not sent any weather packets the latest 10 day(s).
| Time | Temp. | Humidity | Pressure | Rain* | Wind** | Luminosity | Snow |
|---|---|---|---|---|---|---|---|
| 1778005547 | 16.11° C | 33% | 1009.6 hPa | 0 mm | - | 753 W/m² | - |
| 1778005244 | 15° C | 31% | 1009.2 hPa | 0 mm | - | 621 W/m² | - |
| 1778004941 | 16.11° C | 30% | 1009.3 hPa | 0 mm | - | 548 W/m² | - |
| 1778004638 | 14.44° C | 33% | 1009.2 hPa | 0 mm | - | 580 W/m² | - |
| 1778004334 | 15° C | 32% | 1009.1 hPa | 0 mm | - | 614 W/m² | - |
| 1778004032 | 14.44° C | 34% | 1009.1 hPa | 0 mm | - | 453 W/m² | - |
| 1778003732 | 14.44° C | 33% | 1009.1 hPa | 0 mm | - | 452 W/m² | - |
| 1778003429 | 14.44° C | 34% | 1009 hPa | 0 mm | - | 497 W/m² | - |
| 1778003126 | 14.44° C | 32% | 1009.2 hPa | 0 mm | - | 486 W/m² | - |
| 1778002822 | 14.44° C | 32% | 1009.4 hPa | 0 mm | - | 504 W/m² | - |
| 1778002519 | 14.44° C | 35% | 1009 hPa | 0 mm | - | 382 W/m² | - |
| 1778002216 | 13.89° C | 36% | 1009 hPa | 0 mm | - | 346 W/m² | - |
| 1778001914 | 13.89° C | 36% | 1009.1 hPa | 0 mm | - | 307 W/m² | - |
| 1778001610 | 14.44° C | 35% | 1009.1 hPa | 0 mm | - | 387 W/m² | - |
| 1778001305 | 13.89° C | 36% | 1009.3 hPa | 0 mm | - | 392 W/m² | - |
| 1778001002 | 13.89° C | 35% | 1009.3 hPa | 0 mm | - | 381 W/m² | - |
| 1778000699 | 13.89° C | 36% | 1009.2 hPa | 0 mm | - | 391 W/m² | - |
| 1778000394 | 13.89° C | 36% | 1009.1 hPa | 0 mm | - | 434 W/m² | - |
| 1778000090 | 13.89° C | 36% | 1009.1 hPa | 0 mm | - | 487 W/m² | - |
| 1777999786 | 13.89° C | 34% | 1009 hPa | 0 mm | - | 392 W/m² | - |
| 1777999483 | 13.89° C | 33% | 1008.9 hPa | 0 mm | - | 522 W/m² | - |
| 1777999181 | 13.33° C | 36% | 1009 hPa | 0 mm | - | 492 W/m² | - |
| 1777998879 | 13.33° C | 35% | 1009.1 hPa | 0 mm | - | 505 W/m² | - |
| 1777998578 | 13.89° C | 36% | 1009.2 hPa | 0 mm | - | 467 W/m² | - |
| 1777998273 | 12.78° C | 40% | 1008.9 hPa | 0 mm | - | 446 W/m² | - |
* Rain latest hour (hover to see other rain measurements)
** Current wind speed in m/s (hover to see current wind gust speed)